Погода Матолана 2 недели

Мапуту, Мозамбик

16 - 29 июля
  • 16июля
    Сегодня
    +15°
    +26°
    Ясно и безоблачно
    ВремяПогодаТемператураВлажностьДавлениеВетер, м/сВероятность осадков
    02:00Небольшая облачность+18°C94 %766 мм0.6 м/с4 %
    05:00Облачно с прояснениями+17°C94 %765 мм2.0 м/с2 %
    08:00Ясно и безоблачно+19°C83 %766 мм2.8 м/с5 %
    11:00Практически безоблачно+23°C57 %765 мм5.1 м/с5 %
    14:00Ясно и безоблачно+26°C49 %762 мм5.4 м/с3 %
    17:00Ясно и безоблачно+24°C59 %762 мм5.1 м/с5 %
    20:00Ясно и безоблачно+21°C74 %763 мм4.2 м/с5 %
    23:00Ясно и безоблачно+19°C83 %763 мм2.8 м/с5 %
  • 17июля
    Среда
    +16°
    +28°
    Ясно и безоблачно
    ВремяПогодаТемператураВлажностьДавлениеВетер, м/сВероятность осадков
    02:00Ясно и безоблачно+17°C91 %763 мм2.2 м/с5 %
    05:00Ясно и безоблачно+16°C95 %763 мм2.8 м/с5 %
    08:00Ясно и безоблачно+17°C87 %764 мм2.1 м/с5 %
    11:00Ясно и безоблачно+25°C54 %764 мм2.4 м/с5 %
    14:00Ясно и безоблачно+28°C38 %762 мм2.5 м/с5 %
    17:00Ясно и безоблачно+25°C63 %762 мм3.9 м/с5 %
    20:00Ясно и безоблачно+21°C93 %763 мм3.0 м/с5 %
    23:00Ясно и безоблачно+19°C96 %764 мм1.0 м/с5 %
  • 18июля
    Четверг
    +16°
    +31°
    Ясно и безоблачно
    ВремяПогодаТемператураВлажностьДавлениеВетер, м/сВероятность осадков
    02:00Практически безоблачно+17°C95 %763 мм1.6 м/с5 %
    05:00Ясно и безоблачно+17°C90 %763 мм3.1 м/с5 %
    08:00Ясно и безоблачно+18°C72 %764 мм4.6 м/с5 %
    11:00Ясно и безоблачно+26°C44 %764 мм6.5 м/с5 %
    14:00Ясно и безоблачно+30°C38 %762 мм7.0 м/с5 %
    17:00Ясно и безоблачно+29°C44 %761 мм5.5 м/с5 %
    20:00Ясно и безоблачно+24°C49 %762 мм5.2 м/с5 %
    23:00Ясно и безоблачно+21°C58 %762 мм4.4 м/с5 %
  • 19июля
    Пятница
    +16°
    +26°
    Практически безоблачно
    ВремяПогодаТемператураВлажностьДавлениеВетер, м/сВероятность осадков
    02:00Ясно и безоблачно+20°C60 %762 мм4.2 м/с5 %
    05:00Ясно и безоблачно+18°C61 %761 мм3.8 м/с5 %
    08:00Ясно и безоблачно+18°C64 %764 мм3.1 м/с5 %
    11:00Практически безоблачно+25°C58 %764 мм4.7 м/с5 %
    14:00Практически безоблачно+26°C56 %762 мм4.8 м/с5 %
    17:00Ясно и безоблачно+24°C72 %762 мм5.1 м/с5 %
    20:00Ясно и безоблачно+20°C89 %764 мм3.1 м/с5 %
    23:00Ясно и безоблачно+18°C94 %764 мм2.2 м/с5 %
  • 20июля
    Суббота
    +18°
    +25°
    Облачно с прояснениями
    ВремяПогодаТемператураВлажностьДавлениеВетер, м/сВероятность осадков
    02:00Ясно и безоблачно+17°C95 %764 мм2.6 м/с4 %
    05:00Ясно и безоблачно+17°C95 %764 мм3.7 м/с6 %
    08:00Облачно с прояснениями+18°C86 %766 мм4.1 м/с15 %
    11:00Небольшая облачность+24°C61 %765 мм4.6 м/с25 %
    14:00Облачно с прояснениями+24°C59 %763 мм5.1 м/с32 %
    17:00Небольшая облачность+23°C76 %764 мм4.5 м/с32 %
    20:00Небольшая облачность+21°C89 %765 мм4.1 м/с29 %
    23:00Облачно с прояснениями+20°C90 %766 мм4.8 м/с22 %
Мы используем cookies
Соглашаюсь